Yuedian 58 — BYFE — position and weather

sailwx.info

Track history (hours):
 
Tides and Currents Weather Stations Pressure Air Temp Water Temp Dewpoint Dewpoint Depression Visibility Wind Speed Wind Dir Waves Ship Positions

Yuedian 58

Last reported at 2016-Apr-26 23:31 UTC. Time now 2016-May-01 13:43 UTC.
Position N 21°53' E 114°22'.

Length 190 m; draft 6.8 m.

Type: Ship. MMSI: 414008000.

Date/timePositionNaut miles runAvg speedWind from/ knotsBaromVisibWave heightAir tempDewpointWater temp
2016-Apr-26 23:31N 21°53' E 114°22'1313.1
2016-Apr-26 22:33N 22°06' E 114°21'12 3.4
2016-Apr-26 19:04N 22°11' E 114°10'0 0.0
2016-Apr-26 11:21N 22°10' E 114°10'19 0.9
2016-Apr-25 13:31N 21°57' E 114°24'  
2016-Apr-23 04:32N 22°58' E 116°34'9 9.1
2016-Apr-23 03:34N 23°00' E 116°43'1412.2
2016-Apr-23 02:27N 23°04' E 116°58'11412.8
2016-Apr-22 17:32N 24°01' E 118°45'1413.7
2016-Apr-22 16:33N 24°11' E 118°54'1313.4
2016-Apr-22 15:33N 24°22' E 119°03'1312.8
2016-Apr-22 14:31N 24°31' E 119°14'35112.5
2016-Apr-21 10:30N 29°26' E 122°47'46812.9
2016-Apr-19 22:12N 37°13' E 123°18'3810.3
2016-Apr-19 18:29N 37°41' E 122°45'1411.9
2016-Apr-19 17:19N 37°48' E 122°30'1012.5
2016-Apr-19 16:30N 37°54' E 122°19'6111.8
2016-Apr-19 11:18N 38°25' E 121°12'911.6
2016-Apr-19 10:32N 38°30' E 121°02'9111.4
2016-Apr-19 02:33N 39°39' E 119°46'1211.2
2016-Apr-19 01:30N 39°50' E 119°40'5 1.1
2016-Apr-18 20:26N 39°55' E 119°39'0 0.0
2016-Apr-18 18:08N 39°55' E 119°39'0 0.0
2016-Apr-18 17:26N 39°55' E 119°39'0 0.0
2016-Apr-18 16:20N 39°55' E 119°39'0 0.0
2016-Apr-18 15:32N 39°55' E 119°39'0 0.0
2016-Apr-18 14:32N 39°55' E 119°39'0 0.0
2016-Apr-18 13:26N 39°55' E 119°39'0 0.0
2016-Apr-18 12:32N 39°55' E 119°39'0 0.0
2016-Apr-18 11:26N 39°55' E 119°39'0 0.0
2016-Apr-18 10:32N 39°55' E 119°39'0 0.0
2016-Apr-18 09:32N 39°55' E 119°39'0 0.0
2016-Apr-18 08:32N 39°55' E 119°39'0 0.0
2016-Apr-18 07:32N 39°55' E 119°39'0 0.0
2016-Apr-18 06:26N 39°55' E 119°39'0 0.0
2016-Apr-18 05:26N 39°55' E 119°39'0 0.0
2016-Apr-18 04:32N 39°55' E 119°39'0 0.0
2016-Apr-18 02:32N 39°55' E 119°39'0 0.0
2016-Apr-17 18:33N 39°55' E 119°39'6 5.5
2016-Apr-17 17:33N 39°50' E 119°37'0 0.2
2016-Apr-17 15:27N 39°49' E 119°37'0 0.0
2016-Apr-17 13:15N 39°49' E 119°37'0 0.1
2016-Apr-17 12:21N 39°49' E 119°37'0 0.0
2016-Apr-17 11:33N 39°49' E 119°37'0 0.1
2016-Apr-17 10:27N 39°49' E 119°37'0 0.0
2016-Apr-17 07:33N 39°49' E 119°37'0 0.1
2016-Apr-17 06:33N 39°49' E 119°37'0 0.0
2016-Apr-17 05:33N 39°49' E 119°37'0 0.0
2016-Apr-17 04:33N 39°49' E 119°37'0 0.0
2016-Apr-17 03:27N 39°49' E 119°38'0 0.0
2016-Apr-17 02:03N 39°49' E 119°38'  
Track history (hours):
 
Tides and Currents Weather Stations Pressure Air Temp Water Temp Dewpoint Dewpoint Depression Visibility Wind Speed Wind Dir Waves Ship Positions

Yuedian 58

Last reported at 2016-Apr-26 23:31 UTC. Time now 2016-May-01 13:43 UTC.
Position N 21°53' E 114°22'.

Length 190 m; draft 6.8 m.

Type: Ship. MMSI: 414008000.

Date/timePositionNaut miles runAvg speedWind from/ knotsBaromVisibWave heightAir tempDewpointWater temp
2016-Apr-26 23:31N 21°53' E 114°22'1313.1
2016-Apr-26 22:33N 22°06' E 114°21'12 3.4
2016-Apr-26 19:04N 22°11' E 114°10'0 0.0
2016-Apr-26 11:21N 22°10' E 114°10'19 0.9
2016-Apr-25 13:31N 21°57' E 114°24'  
2016-Apr-23 04:32N 22°58' E 116°34'9 9.1
2016-Apr-23 03:34N 23°00' E 116°43'1412.2
2016-Apr-23 02:27N 23°04' E 116°58'11412.8
2016-Apr-22 17:32N 24°01' E 118°45'1413.7
2016-Apr-22 16:33N 24°11' E 118°54'1313.4
2016-Apr-22 15:33N 24°22' E 119°03'1312.8
2016-Apr-22 14:31N 24°31' E 119°14'35112.5
2016-Apr-21 10:30N 29°26' E 122°47'46812.9
2016-Apr-19 22:12N 37°13' E 123°18'3810.3
2016-Apr-19 18:29N 37°41' E 122°45'1411.9
2016-Apr-19 17:19N 37°48' E 122°30'1012.5
2016-Apr-19 16:30N 37°54' E 122°19'6111.8
2016-Apr-19 11:18N 38°25' E 121°12'911.6
2016-Apr-19 10:32N 38°30' E 121°02'9111.4
2016-Apr-19 02:33N 39°39' E 119°46'1211.2
2016-Apr-19 01:30N 39°50' E 119°40'5 1.1
2016-Apr-18 20:26N 39°55' E 119°39'0 0.0
2016-Apr-18 18:08N 39°55' E 119°39'0 0.0
2016-Apr-18 17:26N 39°55' E 119°39'0 0.0
2016-Apr-18 16:20N 39°55' E 119°39'0 0.0
2016-Apr-18 15:32N 39°55' E 119°39'0 0.0
2016-Apr-18 14:32N 39°55' E 119°39'0 0.0
2016-Apr-18 13:26N 39°55' E 119°39'0 0.0
2016-Apr-18 12:32N 39°55' E 119°39'0 0.0
2016-Apr-18 11:26N 39°55' E 119°39'0 0.0
2016-Apr-18 10:32N 39°55' E 119°39'0 0.0
2016-Apr-18 09:32N 39°55' E 119°39'0 0.0
2016-Apr-18 08:32N 39°55' E 119°39'0 0.0
2016-Apr-18 07:32N 39°55' E 119°39'0 0.0
2016-Apr-18 06:26N 39°55' E 119°39'0 0.0
2016-Apr-18 05:26N 39°55' E 119°39'0 0.0
2016-Apr-18 04:32N 39°55' E 119°39'0 0.0
2016-Apr-18 02:32N 39°55' E 119°39'0 0.0
2016-Apr-17 18:33N 39°55' E 119°39'6 5.5
2016-Apr-17 17:33N 39°50' E 119°37'0 0.2
2016-Apr-17 15:27N 39°49' E 119°37'0 0.0
2016-Apr-17 13:15N 39°49' E 119°37'0 0.1
2016-Apr-17 12:21N 39°49' E 119°37'0 0.0
2016-Apr-17 11:33N 39°49' E 119°37'0 0.1
2016-Apr-17 10:27N 39°49' E 119°37'0 0.0
2016-Apr-17 07:33N 39°49' E 119°37'0 0.1
2016-Apr-17 06:33N 39°49' E 119°37'0 0.0
2016-Apr-17 05:33N 39°49' E 119°37'0 0.0
2016-Apr-17 04:33N 39°49' E 119°37'0 0.0
2016-Apr-17 03:27N 39°49' E 119°38'0 0.0
2016-Apr-17 02:03N 39°49' E 119°38'  

Dump ship's entire track history